KSEG/SEG METAR and TAF weather

Enter ICAO airport designator
Station Type Date Time Source
KSEG METAR 2020/01/19 22:53 UTC NOAA

KSEG 192253Z AUTO 27005KT 10SM OVC090 M03/M11 A3003 RMK AO2 SLP174 T10331111


Station Type Date Time Source
KSEG Decoded METAR 2020/01/19 22:53 UTC NOAA

SELINSGROVE PENN VALLEY AIRPORT , PA, United States (KSEG) 40-49N 076-52W 134M
Jan 19, 2020 - 05:53 PM EST / 2020.01.19 2253 UTC
Wind: from the W (270 degrees) at 6 MPH (5 KT):0
Visibility: 10 mile(s):0
Sky conditions: overcast
Temperature: 26.1 F (-3.3 C)
Windchill: 19 F (-7 C):1
Dew Point: 12.0 F (-11.1 C)
Relative Humidity: 54%
Pressure (altimeter): 30.03 in. Hg (1016 hPa)
ob: KSEG 192253Z AUTO 27005KT 10SM OVC090 M03/M11 A3003 RMK AO2 SLP174 T10331111
cycle: 23

Station Type Date Time Source
KSEG TAF UTC NOAA

Error!

Example: see airport list